createdAt,value
2018-05-02T00:01:05.180Z,10.30
2018-05-02T00:04:37.652Z,10.30
2018-05-02T00:08:10.885Z,10.30
2018-05-02T00:11:43.363Z,10.20
2018-05-02T00:15:15.831Z,10.20
2018-05-02T00:18:48.296Z,10.20
2018-05-02T00:22:21.518Z,10.10
2018-05-02T00:25:53.983Z,10.10
2018-05-02T00:29:27.219Z,10.00
2018-05-02T00:32:59.687Z,10.00
2018-05-02T00:36:32.149Z,10.00
2018-05-02T00:40:05.385Z,9.90
2018-05-02T00:43:37.843Z,9.80
2018-05-02T00:47:10.314Z,9.80
2018-05-02T00:50:42.772Z,9.70
2018-05-02T00:54:16.005Z,9.70
2018-05-02T00:57:48.471Z,9.70
2018-05-02T01:01:20.924Z,9.70
2018-05-02T01:04:53.390Z,9.70
2018-05-02T01:08:25.852Z,9.70
2018-05-02T01:11:58.319Z,9.70
2018-05-02T01:15:30.775Z,9.80
2018-05-02T01:19:04.000Z,9.80
2018-05-02T01:22:36.472Z,9.80
2018-05-02T01:26:08.931Z,9.80
2018-05-02T01:29:42.171Z,9.70
2018-05-02T01:33:14.640Z,9.70
2018-05-02T01:36:47.100Z,9.70
2018-05-02T01:40:20.328Z,9.70
2018-05-02T01:43:52.793Z,9.70
2018-05-02T01:47:25.256Z,9.80
2018-05-02T01:50:58.476Z,9.70
2018-05-02T01:54:30.935Z,9.70
2018-05-02T01:58:04.163Z,9.70
2018-05-02T02:01:36.623Z,9.70
2018-05-02T02:05:09.085Z,9.60
2018-05-02T02:08:41.551Z,9.60
2018-05-02T02:12:14.017Z,9.50
2018-05-02T02:15:46.481Z,9.50
2018-05-02T02:19:18.936Z,9.50
2018-05-02T02:22:51.396Z,9.40
2018-05-02T02:26:23.860Z,9.30
2018-05-02T02:29:56.315Z,9.30
2018-05-02T02:33:28.785Z,9.30
2018-05-02T02:37:01.244Z,9.40
2018-05-02T02:40:33.708Z,9.50
2018-05-02T02:44:06.957Z,9.50
2018-05-02T02:47:39.422Z,9.50
2018-05-02T02:51:11.880Z,9.50
2018-05-02T02:54:45.108Z,9.50
2018-05-02T02:58:17.564Z,9.50
2018-05-02T03:01:50.036Z,9.50
2018-05-02T03:05:23.265Z,9.50
2018-05-02T03:08:55.711Z,9.50
2018-05-02T03:12:28.945Z,9.60
2018-05-02T03:16:01.412Z,9.60
2018-05-02T03:19:33.861Z,9.70
2018-05-02T03:23:06.329Z,9.70
2018-05-02T03:26:38.796Z,9.70
2018-05-02T03:30:12.018Z,9.60
2018-05-02T03:33:44.471Z,9.50
2018-05-02T03:37:16.940Z,9.50
2018-05-02T03:40:49.387Z,9.50
2018-05-02T03:44:22.617Z,9.50
2018-05-02T03:47:55.080Z,9.50
2018-05-02T03:51:27.537Z,9.50
2018-05-02T03:55:00.841Z,9.60
2018-05-02T03:58:33.237Z,9.50
2018-05-02T04:02:18.300Z,9.60
2018-05-02T04:06:03.472Z,9.60
2018-05-02T04:09:35.936Z,9.60
2018-05-02T04:13:08.393Z,9.60
2018-05-02T04:16:40.875Z,9.60
2018-05-02T04:20:13.355Z,9.60
2018-05-02T04:23:45.809Z,9.50
2018-05-02T04:27:18.312Z,9.50
2018-05-02T04:30:50.768Z,9.50
2018-05-02T04:34:23.239Z,9.40
2018-05-02T04:37:56.462Z,9.50
2018-05-02T04:41:29.060Z,9.50
2018-05-02T04:45:01.514Z,9.50
2018-05-02T04:48:34.017Z,9.60
2018-05-02T04:52:08.411Z,9.70
2018-05-02T04:55:41.630Z,9.90
2018-05-02T04:59:14.116Z,9.90
2018-05-02T05:02:46.580Z,10.00
2018-05-02T05:06:19.961Z,10.10
2018-05-02T05:09:52.422Z,10.00
2018-05-02T05:13:24.900Z,10.00
2018-05-02T05:16:57.364Z,10.10
2018-05-02T05:20:29.827Z,10.10
2018-05-02T05:24:02.299Z,10.10
2018-05-02T05:27:34.759Z,10.10
2018-05-02T05:31:08.045Z,10.20
2018-05-02T05:34:41.289Z,10.30
2018-05-02T05:38:13.759Z,10.20
2018-05-02T05:41:46.229Z,10.30
2018-05-02T05:45:19.456Z,10.40
2018-05-02T05:48:51.929Z,10.40
2018-05-02T05:52:24.437Z,10.40
2018-05-02T05:55:56.911Z,10.40
2018-05-02T05:59:29.385Z,10.50
2018-05-02T06:03:01.860Z,10.60
2018-05-02T06:06:34.346Z,10.70
2018-05-02T06:10:06.811Z,10.80
2018-05-02T06:13:39.281Z,10.90
2018-05-02T06:17:12.513Z,11.00
2018-05-02T06:20:44.987Z,11.00
2018-05-02T06:24:17.453Z,11.00
2018-05-02T06:27:49.932Z,11.00
2018-05-02T06:31:22.409Z,11.00
2018-05-02T06:34:55.636Z,11.20
2018-05-02T06:38:28.104Z,11.10
2018-05-02T06:42:00.573Z,11.20
2018-05-02T06:45:33.796Z,11.50
2018-05-02T06:49:06.269Z,11.50
2018-05-02T06:52:38.749Z,11.60
2018-05-02T06:56:11.212Z,11.80
2018-05-02T06:59:44.458Z,12.10
2018-05-02T07:03:16.934Z,12.10
2018-05-02T07:06:49.396Z,12.40
2018-05-02T07:10:21.904Z,12.60
2018-05-02T07:13:54.373Z,12.70
2018-05-02T07:17:26.873Z,12.90
2018-05-02T07:20:59.356Z,13.00
2018-05-02T07:24:31.841Z,13.10
2018-05-02T07:28:04.305Z,13.30
2018-05-02T07:31:37.553Z,13.70
2018-05-02T07:35:10.799Z,13.90
2018-05-02T07:38:43.275Z,13.90
2018-05-02T07:42:15.823Z,13.90
2018-05-02T07:45:48.224Z,14.00
2018-05-02T07:49:20.707Z,14.10
2018-05-02T07:52:53.180Z,14.20
2018-05-02T07:56:26.470Z,14.20
2018-05-02T07:59:58.908Z,14.20
2018-05-02T08:03:31.380Z,14.30
2018-05-02T08:07:03.864Z,14.30
2018-05-02T08:10:36.334Z,14.30
2018-05-02T08:14:08.801Z,14.30
2018-05-02T08:17:41.280Z,14.40
2018-05-02T08:21:13.741Z,14.50
2018-05-02T08:24:47.005Z,14.90
2018-05-02T08:28:19.476Z,14.90
2018-05-02T08:31:51.943Z,15.10
2018-05-02T08:35:25.192Z,15.20
2018-05-02T08:38:58.456Z,15.20
2018-05-02T08:42:30.936Z,15.10
2018-05-02T08:46:03.407Z,15.20
2018-05-02T08:49:35.871Z,15.50
2018-05-02T08:53:08.347Z,15.90
2018-05-02T08:56:40.827Z,16.20
2018-05-02T09:00:13.304Z,16.50
2018-05-02T09:03:46.597Z,16.70
2018-05-02T09:07:19.037Z,16.70
2018-05-02T09:10:51.522Z,16.70
2018-05-02T09:14:24.000Z,16.70
2018-05-02T09:17:56.484Z,16.70
2018-05-02T09:21:28.973Z,16.80
2018-05-02T09:25:01.457Z,16.80
2018-05-02T09:28:33.936Z,16.90
2018-05-02T09:32:06.420Z,17.10
2018-05-02T09:35:38.964Z,17.30
2018-05-02T09:39:11.376Z,17.40
2018-05-02T09:42:43.877Z,17.50
2018-05-02T09:46:16.344Z,17.50
2018-05-02T09:49:48.826Z,17.70
2018-05-02T09:53:21.295Z,17.90
2018-05-02T09:56:53.779Z,18.00
2018-05-02T10:00:30.041Z,18.10
2018-05-02T10:04:02.521Z,18.20
2018-05-02T10:07:34.992Z,18.30
2018-05-02T10:11:07.476Z,18.30
2018-05-02T10:14:39.966Z,18.30
2018-05-02T10:18:12.432Z,18.40
2018-05-02T10:21:44.907Z,18.40
2018-05-02T10:25:17.400Z,18.50
2018-05-02T10:28:49.872Z,18.60
2018-05-02T10:32:22.347Z,18.80
2018-05-02T10:35:54.826Z,18.90
2018-05-02T10:39:27.308Z,19.00
2018-05-02T10:42:59.790Z,19.10
2018-05-02T10:46:32.281Z,19.10
2018-05-02T10:50:04.755Z,19.00
2018-05-02T10:53:37.216Z,18.90
2018-05-02T10:57:09.699Z,19.00
2018-05-02T11:00:42.172Z,19.20
2018-05-02T11:04:14.737Z,19.30
2018-05-02T11:11:23.981Z,19.60
2018-05-02T11:14:56.448Z,19.70
2018-05-02T11:18:28.908Z,19.70
2018-05-02T11:22:01.412Z,19.60
2018-05-02T11:25:33.885Z,19.60
2018-05-02T11:29:06.355Z,19.70
2018-05-02T11:32:38.824Z,19.80
2018-05-02T11:36:12.055Z,20.20
2018-05-02T11:39:44.540Z,20.10
2018-05-02T11:43:17.015Z,20.40
2018-05-02T11:46:49.491Z,20.70
2018-05-02T11:50:21.968Z,20.80
2018-05-02T11:53:54.443Z,20.90
2018-05-02T11:57:26.920Z,20.90
2018-05-02T12:00:59.405Z,20.80
2018-05-02T12:04:31.897Z,20.90
2018-05-02T12:08:04.367Z,21.10
2018-05-02T12:11:36.849Z,21.10
2018-05-02T12:15:09.337Z,21.10
2018-05-02T12:18:41.825Z,21.10
2018-05-02T12:22:14.301Z,21.20
2018-05-02T12:25:46.772Z,21.30
2018-05-02T12:29:20.026Z,21.50
2018-05-02T12:32:52.492Z,21.50
2018-05-02T12:36:24.960Z,21.40
2018-05-02T12:39:57.438Z,21.40
2018-05-02T12:43:29.913Z,21.40
2018-05-02T12:47:02.381Z,21.50
2018-05-02T12:50:35.625Z,21.60
2018-05-02T12:54:08.112Z,21.50
2018-05-02T12:57:40.597Z,21.50
2018-05-02T13:01:13.076Z,21.40
2018-05-02T13:04:45.573Z,21.60
2018-05-02T13:08:18.045Z,21.60
2018-05-02T13:11:50.521Z,21.60
2018-05-02T13:15:23.003Z,21.80
2018-05-02T13:18:55.480Z,21.90
2018-05-02T13:22:27.971Z,21.80
2018-05-02T13:26:00.431Z,21.80
2018-05-02T13:29:33.680Z,22.00
2018-05-02T13:33:06.227Z,22.20
2018-05-02T13:36:38.662Z,22.20
2018-05-02T13:40:11.904Z,22.00
2018-05-02T13:43:44.415Z,22.00
2018-05-02T13:47:16.856Z,21.80
2018-05-02T13:50:50.093Z,22.10
2018-05-02T13:54:22.576Z,22.00
2018-05-02T13:57:55.060Z,22.30
2018-05-02T14:01:27.536Z,22.50
2018-05-02T14:05:00.010Z,22.80
2018-05-02T14:08:33.248Z,22.80
2018-05-02T14:12:05.612Z,22.70
2018-05-02T14:15:38.878Z,22.20
2018-05-02T14:19:11.473Z,22.20
2018-05-02T14:22:43.938Z,22.20
2018-05-02T14:26:16.437Z,22.10
2018-05-02T14:29:48.965Z,22.10
2018-05-02T14:33:21.403Z,22.20
2018-05-02T14:36:53.877Z,22.40
2018-05-02T14:40:26.369Z,22.50
2018-05-02T14:43:58.833Z,22.50
2018-05-02T14:47:31.322Z,22.60
2018-05-02T14:51:03.790Z,22.60
2018-05-02T14:54:36.265Z,22.70
2018-05-02T14:58:08.759Z,22.80
2018-05-02T15:01:41.245Z,23.00
2018-05-02T15:05:13.726Z,23.30
2018-05-02T15:08:46.191Z,23.80
2018-05-02T15:12:18.673Z,24.00
2018-05-02T15:15:51.140Z,24.10
2018-05-02T15:19:23.621Z,24.30
2018-05-02T15:22:56.097Z,24.30
2018-05-02T15:26:28.583Z,24.30
2018-05-02T15:30:01.064Z,24.30
2018-05-02T15:33:33.548Z,24.20
2018-05-02T15:37:06.018Z,24.30
2018-05-02T15:40:38.506Z,24.40
2018-05-02T15:44:10.971Z,24.40
2018-05-02T15:47:44.226Z,24.10
2018-05-02T15:51:16.695Z,24.10
2018-05-02T15:54:49.181Z,23.80
2018-05-02T15:58:21.688Z,23.60
2018-05-02T16:01:54.142Z,23.40
2018-05-02T16:05:27.092Z,23.30
2018-05-02T16:09:00.352Z,23.10
2018-05-02T16:12:32.828Z,23.10
2018-05-02T16:16:05.287Z,22.90
2018-05-02T16:19:37.764Z,22.80
2018-05-02T16:23:10.236Z,22.60
2018-05-02T16:26:42.749Z,22.40
2018-05-02T16:30:15.217Z,22.30
2018-05-02T16:33:47.699Z,22.20
2018-05-02T16:37:20.187Z,21.80
2018-05-02T16:40:52.716Z,21.70
2018-05-02T16:44:25.183Z,21.60
2018-05-02T16:47:57.657Z,21.40
2018-05-02T16:51:30.120Z,21.30
2018-05-02T16:55:02.588Z,21.20
2018-05-02T16:58:35.055Z,21.20
2018-05-02T17:02:07.544Z,21.20
2018-05-02T17:05:40.023Z,21.10
2018-05-02T17:09:12.655Z,21.00
2018-05-02T17:12:45.113Z,20.90
2018-05-02T17:16:18.029Z,20.80
2018-05-02T17:19:50.488Z,20.70
2018-05-02T17:23:22.961Z,20.60
2018-05-02T17:26:55.416Z,20.40
2018-05-02T17:30:27.883Z,20.30
2018-05-02T17:34:01.125Z,20.40
2018-05-02T17:37:33.671Z,20.30
2018-05-02T17:41:06.908Z,20.20
2018-05-02T17:44:39.394Z,20.20
2018-05-02T17:48:11.875Z,20.20
2018-05-02T17:51:44.345Z,20.20
2018-05-02T17:55:16.811Z,20.10
2018-05-02T17:58:49.523Z,20.10
2018-05-02T18:02:21.981Z,20.00
2018-05-02T18:05:54.475Z,19.90
2018-05-02T18:09:27.045Z,19.80
2018-05-02T18:12:59.528Z,19.70
2018-05-02T18:16:31.998Z,19.70
2018-05-02T18:20:04.477Z,19.60
2018-05-02T18:23:36.957Z,19.40
2018-05-02T18:27:10.207Z,19.10
2018-05-02T18:30:42.675Z,19.10
2018-05-02T18:34:15.485Z,18.90
2018-05-02T18:37:47.961Z,18.90
2018-05-02T18:41:20.436Z,18.80
2018-05-02T18:44:52.909Z,18.80
2018-05-02T18:48:25.380Z,18.70
2018-05-02T18:51:57.852Z,18.70
2018-05-02T18:55:30.344Z,18.70
2018-05-02T18:59:02.811Z,18.60
2018-05-02T19:02:35.283Z,18.60
2018-05-02T19:06:08.523Z,18.60
2018-05-02T19:09:41.007Z,18.60
2018-05-02T19:13:13.467Z,18.60
2018-05-02T19:16:45.940Z,18.60
2018-05-02T19:20:24.045Z,18.50
2018-05-02T19:23:56.564Z,18.40
2018-05-02T19:27:29.051Z,18.30
2018-05-02T19:31:07.323Z,18.20
2018-05-02T19:34:40.555Z,18.00
2018-05-02T19:38:13.032Z,18.00
2018-05-02T19:41:51.144Z,17.90
2018-05-02T19:45:23.700Z,17.90
2018-05-02T19:48:56.929Z,17.70
2018-05-02T19:52:35.014Z,17.70
2018-05-02T19:56:08.246Z,17.50
2018-05-02T19:59:40.719Z,17.50
2018-05-02T20:03:13.184Z,17.40
2018-05-02T20:06:45.653Z,17.30
2018-05-02T20:10:24.618Z,17.20
2018-05-02T20:14:02.863Z,17.20
2018-05-02T20:17:35.314Z,17.20
2018-05-02T20:21:07.787Z,17.10
2018-05-02T20:24:40.252Z,17.00
2018-05-02T20:28:13.491Z,17.00
2018-05-02T20:31:45.960Z,17.00
2018-05-02T20:35:18.431Z,17.00
2018-05-02T20:38:50.899Z,16.90
2018-05-02T20:42:24.138Z,16.90
2018-05-02T20:45:56.611Z,16.90
2018-05-02T20:49:29.147Z,16.90
2018-05-02T20:53:01.566Z,16.90
2018-05-02T20:56:34.039Z,16.90
2018-05-02T21:00:06.492Z,16.80
2018-05-02T21:03:39.727Z,16.70
2018-05-02T21:07:12.179Z,16.70
2018-05-02T21:10:45.442Z,16.60
2018-05-02T21:14:17.900Z,16.50
2018-05-02T21:17:50.368Z,16.40
2018-05-02T21:21:23.617Z,16.40
2018-05-02T21:24:56.088Z,16.30
2018-05-02T21:28:28.542Z,16.20
2018-05-02T21:32:01.015Z,16.20
2018-05-02T21:35:33.472Z,16.10
2018-05-02T21:39:06.708Z,16.00
2018-05-02T21:42:39.174Z,16.00
2018-05-02T21:46:11.764Z,15.90
2018-05-02T21:49:44.224Z,15.90
2018-05-02T21:53:17.460Z,15.80
2018-05-02T21:56:49.921Z,15.80
2018-05-02T22:00:22.381Z,15.80
2018-05-02T22:03:54.843Z,15.70
2018-05-02T22:07:27.309Z,15.70
2018-05-02T22:10:59.764Z,15.60
2018-05-02T22:14:32.239Z,15.60
2018-05-02T22:18:04.707Z,15.60
2018-05-02T22:21:37.168Z,15.60
2018-05-02T22:25:10.396Z,15.50
2018-05-02T22:28:42.859Z,15.50
2018-05-02T22:32:15.334Z,15.50
2018-05-02T22:35:48.566Z,15.40
2018-05-02T22:39:21.028Z,15.40
2018-05-02T22:42:53.499Z,15.40
2018-05-02T22:46:26.720Z,15.40
2018-05-02T22:49:59.196Z,15.40
2018-05-02T22:53:31.695Z,15.40
2018-05-02T22:57:04.152Z,15.40
2018-05-02T23:00:36.667Z,15.50
2018-05-02T23:04:09.139Z,15.60
2018-05-02T23:07:41.595Z,15.60
2018-05-02T23:11:14.057Z,15.50
2018-05-02T23:14:47.283Z,15.40
2018-05-02T23:18:19.774Z,15.40
2018-05-02T23:21:52.244Z,15.30
2018-05-02T23:25:24.710Z,15.40
2018-05-02T23:28:58.771Z,15.30
2018-05-02T23:32:31.231Z,15.30
2018-05-02T23:36:03.694Z,15.20
2018-05-02T23:39:36.969Z,15.20
2018-05-02T23:43:09.432Z,15.10
2018-05-02T23:46:41.890Z,15.10
2018-05-02T23:50:14.364Z,15.10
2018-05-02T23:53:46.820Z,15.10
2018-05-02T23:57:19.337Z,15.20
